sensor_id;sensor_type;location;lat;lon;timestamp;P1;durP1;ratioP1;P2;durP2;ratioP2
11777;SDS011;5946;51.770;8.548;2024-02-21T00:00:21;35.97;;;17.00;;
11777;SDS011;5946;51.770;8.548;2024-02-21T00:02:47;32.10;;;15.33;;
11777;SDS011;5946;51.770;8.548;2024-02-21T00:05:13;31.57;;;15.53;;
11777;SDS011;5946;51.770;8.548;2024-02-21T00:07:39;36.20;;;15.93;;
11777;SDS011;5946;51.770;8.548;2024-02-21T00:10:05;27.70;;;14.87;;
11777;SDS011;5946;51.770;8.548;2024-02-21T00:12:31;32.27;;;15.67;;
11777;SDS011;5946;51.770;8.548;2024-02-21T00:14:57;31.53;;;14.17;;
11777;SDS011;5946;51.770;8.548;2024-02-21T00:17:23;34.13;;;14.73;;
11777;SDS011;5946;51.770;8.548;2024-02-21T00:19:51;36.53;;;15.23;;
11777;SDS011;5946;51.770;8.548;2024-02-21T00:22:17;27.03;;;14.53;;
11777;SDS011;5946;51.770;8.548;2024-02-21T00:24:43;32.93;;;15.40;;
11777;SDS011;5946;51.770;8.548;2024-02-21T00:27:08;30.43;;;14.83;;
11777;SDS011;5946;51.770;8.548;2024-02-21T00:29:34;32.77;;;15.23;;
11777;SDS011;5946;51.770;8.548;2024-02-21T00:32:02;32.13;;;14.27;;
11777;SDS011;5946;51.770;8.548;2024-02-21T00:34:28;31.13;;;14.83;;
11777;SDS011;5946;51.770;8.548;2024-02-21T00:36:53;28.87;;;14.97;;
11777;SDS011;5946;51.770;8.548;2024-02-21T00:39:19;36.10;;;15.20;;
11777;SDS011;5946;51.770;8.548;2024-02-21T00:41:45;37.27;;;14.83;;
11777;SDS011;5946;51.770;8.548;2024-02-21T00:44:11;29.87;;;14.30;;
11777;SDS011;5946;51.770;8.548;2024-02-21T00:46:37;29.90;;;15.53;;
11777;SDS011;5946;51.770;8.548;2024-02-21T00:49:03;32.23;;;15.47;;
11777;SDS011;5946;51.770;8.548;2024-02-21T00:51:30;30.67;;;15.43;;
11777;SDS011;5946;51.770;8.548;2024-02-21T00:53:56;33.53;;;16.20;;
11777;SDS011;5946;51.770;8.548;2024-02-21T00:56:22;36.20;;;16.13;;
11777;SDS011;5946;51.770;8.548;2024-02-21T00:58:48;38.87;;;16.23;;
11777;SDS011;5946;51.770;8.548;2024-02-21T01:01:20;34.87;;;16.73;;
11777;SDS011;5946;51.770;8.548;2024-02-21T01:03:46;34.27;;;16.77;;
11777;SDS011;5946;51.770;8.548;2024-02-21T01:06:12;34.70;;;17.03;;
11777;SDS011;5946;51.770;8.548;2024-02-21T01:08:38;36.47;;;16.63;;
11777;SDS011;5946;51.770;8.548;2024-02-21T01:11:04;29.67;;;17.37;;
11777;SDS011;5946;51.770;8.548;2024-02-21T01:13:30;38.63;;;18.80;;
11777;SDS011;5946;51.770;8.548;2024-02-21T01:15:56;37.00;;;17.83;;
11777;SDS011;5946;51.770;8.548;2024-02-21T01:18:22;35.77;;;17.87;;
11777;SDS011;5946;51.770;8.548;2024-02-21T01:20:48;38.83;;;17.77;;
11777;SDS011;5946;51.770;8.548;2024-02-21T01:23:14;35.73;;;17.40;;
11777;SDS011;5946;51.770;8.548;2024-02-21T01:25:40;34.27;;;17.47;;
11777;SDS011;5946;51.770;8.548;2024-02-21T01:28:06;33.57;;;17.20;;
11777;SDS011;5946;51.770;8.548;2024-02-21T01:30:32;28.23;;;17.47;;
11777;SDS011;5946;51.770;8.548;2024-02-21T01:32:58;37.40;;;18.00;;
11777;SDS011;5946;51.770;8.548;2024-02-21T01:35:24;33.87;;;18.37;;
11777;SDS011;5946;51.770;8.548;2024-02-21T01:37:49;33.30;;;17.20;;
11777;SDS011;5946;51.770;8.548;2024-02-21T01:40:16;32.40;;;17.93;;
11777;SDS011;5946;51.770;8.548;2024-02-21T01:42:42;44.07;;;18.77;;
11777;SDS011;5946;51.770;8.548;2024-02-21T01:45:08;35.03;;;17.17;;
11777;SDS011;5946;51.770;8.548;2024-02-21T01:47:35;28.87;;;17.30;;
11777;SDS011;5946;51.770;8.548;2024-02-21T01:50:01;26.13;;;16.40;;
11777;SDS011;5946;51.770;8.548;2024-02-21T01:52:29;37.00;;;17.80;;
11777;SDS011;5946;51.770;8.548;2024-02-21T01:54:55;31.70;;;15.93;;
11777;SDS011;5946;51.770;8.548;2024-02-21T01:57:22;33.00;;;17.23;;
11777;SDS011;5946;51.770;8.548;2024-02-21T01:59:48;30.17;;;17.00;;
11777;SDS011;5946;51.770;8.548;2024-02-21T02:02:14;32.47;;;16.60;;
11777;SDS011;5946;51.770;8.548;2024-02-21T02:04:41;29.97;;;17.23;;
11777;SDS011;5946;51.770;8.548;2024-02-21T02:07:08;27.37;;;16.37;;
11777;SDS011;5946;51.770;8.548;2024-02-21T02:09:34;35.27;;;16.03;;
11777;SDS011;5946;51.770;8.548;2024-02-21T02:12:00;30.90;;;16.03;;
11777;SDS011;5946;51.770;8.548;2024-02-21T02:14:27;33.13;;;16.43;;
11777;SDS011;5946;51.770;8.548;2024-02-21T02:16:53;31.17;;;15.77;;
11777;SDS011;5946;51.770;8.548;2024-02-21T02:19:19;30.77;;;15.77;;
11777;SDS011;5946;51.770;8.548;2024-02-21T02:21:46;27.90;;;15.97;;
11777;SDS011;5946;51.770;8.548;2024-02-21T02:24:13;31.07;;;16.23;;
11777;SDS011;5946;51.770;8.548;2024-02-21T02:26:39;28.37;;;15.23;;
11777;SDS011;5946;51.770;8.548;2024-02-21T02:29:05;30.67;;;16.20;;
11777;SDS011;5946;51.770;8.548;2024-02-21T02:31:31;26.87;;;15.20;;
11777;SDS011;5946;51.770;8.548;2024-02-21T02:33:57;27.93;;;14.90;;
11777;SDS011;5946;51.770;8.548;2024-02-21T02:36:23;30.17;;;16.17;;
11777;SDS011;5946;51.770;8.548;2024-02-21T02:38:49;26.60;;;15.27;;
11777;SDS011;5946;51.770;8.548;2024-02-21T02:41:15;30.83;;;15.53;;
11777;SDS011;5946;51.770;8.548;2024-02-21T02:43:40;31.80;;;15.40;;
11777;SDS011;5946;51.770;8.548;2024-02-21T02:46:06;25.93;;;15.17;;
11777;SDS011;5946;51.770;8.548;2024-02-21T02:48:32;30.40;;;14.63;;
11777;SDS011;5946;51.770;8.548;2024-02-21T02:50:58;29.73;;;14.67;;
11777;SDS011;5946;51.770;8.548;2024-02-21T02:53:27;26.20;;;14.57;;
11777;SDS011;5946;51.770;8.548;2024-02-21T02:55:53;27.43;;;15.23;;
11777;SDS011;5946;51.770;8.548;2024-02-21T02:58:19;27.97;;;15.20;;
11777;SDS011;5946;51.770;8.548;2024-02-21T03:00:45;25.23;;;13.67;;
11777;SDS011;5946;51.770;8.548;2024-02-21T03:03:10;24.70;;;13.87;;
11777;SDS011;5946;51.770;8.548;2024-02-21T03:05:36;26.67;;;14.03;;
11777;SDS011;5946;51.770;8.548;2024-02-21T03:08:02;25.07;;;14.23;;
11777;SDS011;5946;51.770;8.548;2024-02-21T03:10:32;36.77;;;14.83;;
11777;SDS011;5946;51.770;8.548;2024-02-21T03:12:57;24.43;;;13.70;;
11777;SDS011;5946;51.770;8.548;2024-02-21T03:15:23;28.57;;;15.17;;
11777;SDS011;5946;51.770;8.548;2024-02-21T03:17:49;22.43;;;14.37;;
11777;SDS011;5946;51.770;8.548;2024-02-21T03:20:15;27.13;;;13.63;;
11777;SDS011;5946;51.770;8.548;2024-02-21T03:22:41;28.27;;;13.67;;
11777;SDS011;5946;51.770;8.548;2024-02-21T03:25:08;28.83;;;14.20;;
11777;SDS011;5946;51.770;8.548;2024-02-21T03:27:35;21.97;;;13.70;;
11777;SDS011;5946;51.770;8.548;2024-02-21T03:30:01;27.07;;;14.10;;
11777;SDS011;5946;51.770;8.548;2024-02-21T03:32:27;23.20;;;13.57;;
11777;SDS011;5946;51.770;8.548;2024-02-21T03:34:53;21.17;;;13.33;;
11777;SDS011;5946;51.770;8.548;2024-02-21T03:37:20;25.33;;;12.97;;
11777;SDS011;5946;51.770;8.548;2024-02-21T03:39:45;23.83;;;13.47;;
11777;SDS011;5946;51.770;8.548;2024-02-21T03:42:11;27.27;;;13.43;;
11777;SDS011;5946;51.770;8.548;2024-02-21T03:44:38;24.60;;;13.43;;
11777;SDS011;5946;51.770;8.548;2024-02-21T03:47:04;25.43;;;13.50;;
11777;SDS011;5946;51.770;8.548;2024-02-21T03:49:30;24.37;;;13.67;;
11777;SDS011;5946;51.770;8.548;2024-02-21T03:51:58;22.27;;;12.90;;
11777;SDS011;5946;51.770;8.548;2024-02-21T03:54:24;24.63;;;13.47;;
11777;SDS011;5946;51.770;8.548;2024-02-21T03:56:50;23.47;;;13.13;;
11777;SDS011;5946;51.770;8.548;2024-02-21T03:59:16;22.30;;;12.80;;
11777;SDS011;5946;51.770;8.548;2024-02-21T04:01:42;26.63;;;12.70;;
11777;SDS011;5946;51.770;8.548;2024-02-21T04:04:09;26.27;;;12.50;;
11777;SDS011;5946;51.770;8.548;2024-02-21T04:06:35;23.27;;;12.40;;
11777;SDS011;5946;51.770;8.548;2024-02-21T04:09:01;27.30;;;13.07;;
11777;SDS011;5946;51.770;8.548;2024-02-21T04:11:28;20.00;;;11.53;;
11777;SDS011;5946;51.770;8.548;2024-02-21T04:13:54;21.83;;;12.63;;
11777;SDS011;5946;51.770;8.548;2024-02-21T04:16:20;23.53;;;12.03;;
11777;SDS011;5946;51.770;8.548;2024-02-21T04:18:46;21.17;;;11.17;;
11777;SDS011;5946;51.770;8.548;2024-02-21T04:21:14;26.67;;;11.50;;
11777;SDS011;5946;51.770;8.548;2024-02-21T04:23:41;21.73;;;12.40;;
11777;SDS011;5946;51.770;8.548;2024-02-21T04:26:07;22.00;;;12.00;;
11777;SDS011;5946;51.770;8.548;2024-02-21T04:28:33;22.40;;;11.33;;
11777;SDS011;5946;51.770;8.548;2024-02-21T04:30:59;23.03;;;12.20;;
11777;SDS011;5946;51.770;8.548;2024-02-21T04:33:25;20.33;;;11.47;;
11777;SDS011;5946;51.770;8.548;2024-02-21T04:35:51;24.97;;;11.50;;
11777;SDS011;5946;51.770;8.548;2024-02-21T04:38:19;23.93;;;11.43;;
11777;SDS011;5946;51.770;8.548;2024-02-21T04:40:45;22.73;;;11.57;;
11777;SDS011;5946;51.770;8.548;2024-02-21T04:43:11;19.67;;;12.03;;
11777;SDS011;5946;51.770;8.548;2024-02-21T04:45:37;22.20;;;11.97;;
11777;SDS011;5946;51.770;8.548;2024-02-21T04:48:03;23.93;;;11.83;;
11777;SDS011;5946;51.770;8.548;2024-02-21T04:50:29;19.77;;;10.97;;
11777;SDS011;5946;51.770;8.548;2024-02-21T04:52:55;23.30;;;11.77;;
11777;SDS011;5946;51.770;8.548;2024-02-21T04:55:21;22.17;;;11.37;;
11777;SDS011;5946;51.770;8.548;2024-02-21T04:57:47;17.80;;;11.13;;
11777;SDS011;5946;51.770;8.548;2024-02-21T05:00:13;20.07;;;11.27;;
11777;SDS011;5946;51.770;8.548;2024-02-21T05:02:39;18.90;;;11.03;;
11777;SDS011;5946;51.770;8.548;2024-02-21T05:05:05;19.27;;;10.77;;
11777;SDS011;5946;51.770;8.548;2024-02-21T05:07:31;24.30;;;11.07;;
11777;SDS011;5946;51.770;8.548;2024-02-21T05:09:57;23.47;;;11.20;;
11777;SDS011;5946;51.770;8.548;2024-02-21T05:12:23;17.63;;;10.33;;
11777;SDS011;5946;51.770;8.548;2024-02-21T05:14:49;22.97;;;11.53;;
11777;SDS011;5946;51.770;8.548;2024-02-21T05:17:15;22.47;;;11.00;;
11777;SDS011;5946;51.770;8.548;2024-02-21T05:19:41;18.93;;;10.87;;
11777;SDS011;5946;51.770;8.548;2024-02-21T05:22:07;22.73;;;11.20;;
11777;SDS011;5946;51.770;8.548;2024-02-21T05:24:33;19.80;;;10.57;;
11777;SDS011;5946;51.770;8.548;2024-02-21T05:26:59;15.77;;;10.03;;
11777;SDS011;5946;51.770;8.548;2024-02-21T05:29:25;17.90;;;9.50;;
11777;SDS011;5946;51.770;8.548;2024-02-21T05:34:17;21.70;;;10.90;;
11777;SDS011;5946;51.770;8.548;2024-02-21T05:36:43;24.93;;;10.60;;
11777;SDS011;5946;51.770;8.548;2024-02-21T05:39:09;23.27;;;11.37;;
11777;SDS011;5946;51.770;8.548;2024-02-21T05:41:35;19.47;;;10.70;;
11777;SDS011;5946;51.770;8.548;2024-02-21T05:44:01;21.37;;;11.00;;
11777;SDS011;5946;51.770;8.548;2024-02-21T05:46:27;20.50;;;10.13;;
11777;SDS011;5946;51.770;8.548;2024-02-21T05:48:53;23.23;;;11.10;;
11777;SDS011;5946;51.770;8.548;2024-02-21T05:51:19;19.43;;;10.47;;
11777;SDS011;5946;51.770;8.548;2024-02-21T05:53:45;20.13;;;11.07;;
11777;SDS011;5946;51.770;8.548;2024-02-21T05:56:12;26.80;;;11.00;;
11777;SDS011;5946;51.770;8.548;2024-02-21T05:58:38;22.67;;;11.47;;
11777;SDS011;5946;51.770;8.548;2024-02-21T06:01:04;23.13;;;11.23;;
11777;SDS011;5946;51.770;8.548;2024-02-21T06:03:31;16.73;;;10.53;;
11777;SDS011;5946;51.770;8.548;2024-02-21T06:05:57;22.17;;;11.27;;
11777;SDS011;5946;51.770;8.548;2024-02-21T06:08:23;22.60;;;10.97;;
11777;SDS011;5946;51.770;8.548;2024-02-21T06:10:49;19.57;;;11.07;;
11777;SDS011;5946;51.770;8.548;2024-02-21T06:13:19;24.33;;;11.13;;
11777;SDS011;5946;51.770;8.548;2024-02-21T06:15:46;20.13;;;11.23;;
11777;SDS011;5946;51.770;8.548;2024-02-21T06:18:12;21.77;;;12.07;;
11777;SDS011;5946;51.770;8.548;2024-02-21T06:20:38;22.03;;;11.77;;
11777;SDS011;5946;51.770;8.548;2024-02-21T06:23:05;25.00;;;11.90;;
11777;SDS011;5946;51.770;8.548;2024-02-21T06:25:31;22.90;;;12.00;;
11777;SDS011;5946;51.770;8.548;2024-02-21T06:27:57;27.67;;;12.40;;
11777;SDS011;5946;51.770;8.548;2024-02-21T06:30:23;21.83;;;12.83;;
11777;SDS011;5946;51.770;8.548;2024-02-21T06:32:49;23.77;;;12.60;;
11777;SDS011;5946;51.770;8.548;2024-02-21T06:35:15;20.53;;;12.30;;
11777;SDS011;5946;51.770;8.548;2024-02-21T06:37:41;20.17;;;11.90;;
11777;SDS011;5946;51.770;8.548;2024-02-21T06:40:10;21.83;;;12.57;;
11777;SDS011;5946;51.770;8.548;2024-02-21T06:42:36;22.87;;;11.80;;
11777;SDS011;5946;51.770;8.548;2024-02-21T06:45:02;22.77;;;12.00;;
11777;SDS011;5946;51.770;8.548;2024-02-21T06:47:28;26.63;;;12.63;;
11777;SDS011;5946;51.770;8.548;2024-02-21T06:49:54;20.27;;;11.67;;
11777;SDS011;5946;51.770;8.548;2024-02-21T06:52:20;24.27;;;12.10;;
11777;SDS011;5946;51.770;8.548;2024-02-21T06:54:46;22.93;;;11.33;;
11777;SDS011;5946;51.770;8.548;2024-02-21T06:57:12;24.63;;;12.13;;
11777;SDS011;5946;51.770;8.548;2024-02-21T06:59:40;20.30;;;11.53;;
11777;SDS011;5946;51.770;8.548;2024-02-21T07:02:06;22.30;;;11.20;;
11777;SDS011;5946;51.770;8.548;2024-02-21T07:04:32;20.73;;;10.80;;
11777;SDS011;5946;51.770;8.548;2024-02-21T07:06:58;18.47;;;11.03;;
11777;SDS011;5946;51.770;8.548;2024-02-21T07:09:24;22.87;;;11.67;;
11777;SDS011;5946;51.770;8.548;2024-02-21T07:11:50;18.57;;;10.87;;
11777;SDS011;5946;51.770;8.548;2024-02-21T07:14:17;19.73;;;11.17;;
11777;SDS011;5946;51.770;8.548;2024-02-21T07:16:43;18.00;;;10.43;;
11777;SDS011;5946;51.770;8.548;2024-02-21T07:19:09;20.10;;;10.60;;
11777;SDS011;5946;51.770;8.548;2024-02-21T07:21:35;19.20;;;10.97;;
11777;SDS011;5946;51.770;8.548;2024-02-21T07:24:03;18.67;;;9.83;;
11777;SDS011;5946;51.770;8.548;2024-02-21T07:26:29;22.83;;;9.97;;
11777;SDS011;5946;51.770;8.548;2024-02-21T07:28:55;19.30;;;10.47;;
11777;SDS011;5946;51.770;8.548;2024-02-21T07:31:21;18.47;;;10.10;;
11777;SDS011;5946;51.770;8.548;2024-02-21T07:33:47;16.00;;;10.57;;
11777;SDS011;5946;51.770;8.548;2024-02-21T07:36:14;14.87;;;10.40;;
11777;SDS011;5946;51.770;8.548;2024-02-21T07:38:43;20.43;;;9.83;;
11777;SDS011;5946;51.770;8.548;2024-02-21T07:41:09;22.97;;;10.03;;
11777;SDS011;5946;51.770;8.548;2024-02-21T07:43:35;16.50;;;9.03;;
11777;SDS011;5946;51.770;8.548;2024-02-21T07:46:01;17.60;;;9.47;;
11777;SDS011;5946;51.770;8.548;2024-02-21T07:48:27;17.40;;;8.97;;
11777;SDS011;5946;51.770;8.548;2024-02-21T07:50:53;14.97;;;9.23;;
11777;SDS011;5946;51.770;8.548;2024-02-21T07:53:19;14.07;;;8.47;;
11777;SDS011;5946;51.770;8.548;2024-02-21T07:55:46;17.40;;;9.00;;
11777;SDS011;5946;51.770;8.548;2024-02-21T07:58:15;18.17;;;9.50;;
11777;SDS011;5946;51.770;8.548;2024-02-21T08:00:41;16.97;;;9.20;;
11777;SDS011;5946;51.770;8.548;2024-02-21T08:03:06;18.47;;;9.40;;
11777;SDS011;5946;51.770;8.548;2024-02-21T08:05:34;16.60;;;9.43;;
11777;SDS011;5946;51.770;8.548;2024-02-21T08:08:00;18.20;;;8.97;;
11777;SDS011;5946;51.770;8.548;2024-02-21T08:10:26;18.10;;;8.97;;
11777;SDS011;5946;51.770;8.548;2024-02-21T08:12:52;17.03;;;8.70;;
11777;SDS011;5946;51.770;8.548;2024-02-21T08:15:18;17.87;;;8.47;;
11777;SDS011;5946;51.770;8.548;2024-02-21T08:17:44;15.30;;;8.70;;
11777;SDS011;5946;51.770;8.548;2024-02-21T08:20:10;18.57;;;8.47;;
11777;SDS011;5946;51.770;8.548;2024-02-21T08:22:37;13.47;;;8.43;;
11777;SDS011;5946;51.770;8.548;2024-02-21T08:25:03;15.10;;;8.27;;
11777;SDS011;5946;51.770;8.548;2024-02-21T08:27:30;12.00;;;7.90;;
11777;SDS011;5946;51.770;8.548;2024-02-21T08:29:56;14.70;;;8.27;;
11777;SDS011;5946;51.770;8.548;2024-02-21T08:32:22;14.73;;;8.27;;
11777;SDS011;5946;51.770;8.548;2024-02-21T08:34:48;13.67;;;8.13;;
11777;SDS011;5946;51.770;8.548;2024-02-21T08:37:15;18.43;;;8.43;;
11777;SDS011;5946;51.770;8.548;2024-02-21T08:39:41;14.37;;;7.53;;
11777;SDS011;5946;51.770;8.548;2024-02-21T08:42:07;12.77;;;8.13;;
11777;SDS011;5946;51.770;8.548;2024-02-21T08:44:33;16.50;;;7.70;;
11777;SDS011;5946;51.770;8.548;2024-02-21T08:46:59;13.50;;;6.80;;
11777;SDS011;5946;51.770;8.548;2024-02-21T08:49:28;8.73;;;6.27;;
11777;SDS011;5946;51.770;8.548;2024-02-21T08:51:54;10.03;;;6.57;;
11777;SDS011;5946;51.770;8.548;2024-02-21T08:54:20;15.37;;;6.63;;
11777;SDS011;5946;51.770;8.548;2024-02-21T08:56:46;10.90;;;6.40;;
11777;SDS011;5946;51.770;8.548;2024-02-21T08:59:12;12.07;;;6.37;;
11777;SDS011;5946;51.770;8.548;2024-02-21T09:01:40;11.00;;;6.67;;
11777;SDS011;5946;51.770;8.548;2024-02-21T09:04:05;16.53;;;6.60;;
11777;SDS011;5946;51.770;8.548;2024-02-21T09:06:32;12.77;;;6.57;;
11777;SDS011;5946;51.770;8.548;2024-02-21T09:09:01;9.97;;;6.03;;
11777;SDS011;5946;51.770;8.548;2024-02-21T09:11:27;15.77;;;6.73;;
11777;SDS011;5946;51.770;8.548;2024-02-21T09:13:53;11.20;;;6.37;;
11777;SDS011;5946;51.770;8.548;2024-02-21T09:16:19;9.03;;;5.90;;
11777;SDS011;5946;51.770;8.548;2024-02-21T09:18:45;11.73;;;6.17;;
11777;SDS011;5946;51.770;8.548;2024-02-21T09:21:11;11.47;;;6.00;;
11777;SDS011;5946;51.770;8.548;2024-02-21T09:23:40;8.67;;;5.83;;
11777;SDS011;5946;51.770;8.548;2024-02-21T09:26:09;15.60;;;6.67;;
11777;SDS011;5946;51.770;8.548;2024-02-21T09:28:38;9.87;;;6.60;;
11777;SDS011;5946;51.770;8.548;2024-02-21T09:31:04;13.67;;;6.63;;
11777;SDS011;5946;51.770;8.548;2024-02-21T09:33:31;14.13;;;7.83;;
11777;SDS011;5946;51.770;8.548;2024-02-21T09:35:56;11.37;;;7.47;;
11777;SDS011;5946;51.770;8.548;2024-02-21T09:38:22;14.73;;;8.70;;
11777;SDS011;5946;51.770;8.548;2024-02-21T09:40:53;18.13;;;9.30;;
11777;SDS011;5946;51.770;8.548;2024-02-21T09:43:23;14.83;;;10.50;;
11777;SDS011;5946;51.770;8.548;2024-02-21T09:45:49;16.73;;;10.50;;
11777;SDS011;5946;51.770;8.548;2024-02-21T09:48:30;20.87;;;11.60;;
11777;SDS011;5946;51.770;8.548;2024-02-21T09:51:01;18.00;;;11.20;;
11777;SDS011;5946;51.770;8.548;2024-02-21T09:53:28;15.53;;;10.67;;
11777;SDS011;5946;51.770;8.548;2024-02-21T09:55:55;17.93;;;10.93;;
11777;SDS011;5946;51.770;8.548;2024-02-21T09:58:21;18.70;;;11.10;;
11777;SDS011;5946;51.770;8.548;2024-02-21T10:00:48;19.50;;;11.73;;
11777;SDS011;5946;51.770;8.548;2024-02-21T10:03:14;18.47;;;11.40;;
11777;SDS011;5946;51.770;8.548;2024-02-21T10:05:45;16.47;;;10.40;;
11777;SDS011;5946;51.770;8.548;2024-02-21T10:08:14;17.60;;;10.70;;
11777;SDS011;5946;51.770;8.548;2024-02-21T10:10:41;17.17;;;9.87;;
11777;SDS011;5946;51.770;8.548;2024-02-21T10:13:08;20.53;;;11.67;;
11777;SDS011;5946;51.770;8.548;2024-02-21T10:15:34;16.30;;;9.83;;
11777;SDS011;5946;51.770;8.548;2024-02-21T10:18:00;15.63;;;9.80;;
11777;SDS011;5946;51.770;8.548;2024-02-21T10:20:28;17.73;;;9.67;;
11777;SDS011;5946;51.770;8.548;2024-02-21T10:23:00;16.73;;;9.83;;
11777;SDS011;5946;51.770;8.548;2024-02-21T10:25:28;14.67;;;9.13;;
11777;SDS011;5946;51.770;8.548;2024-02-21T10:27:55;11.47;;;8.50;;
11777;SDS011;5946;51.770;8.548;2024-02-21T10:30:21;15.23;;;8.07;;
11777;SDS011;5946;51.770;8.548;2024-02-21T10:32:51;14.00;;;7.93;;
11777;SDS011;5946;51.770;8.548;2024-02-21T10:35:27;14.47;;;8.23;;
11777;SDS011;5946;51.770;8.548;2024-02-21T10:37:54;13.00;;;8.40;;
11777;SDS011;5946;51.770;8.548;2024-02-21T10:40:24;12.30;;;7.20;;
11777;SDS011;5946;51.770;8.548;2024-02-21T10:42:57;11.27;;;7.60;;
11777;SDS011;5946;51.770;8.548;2024-02-21T10:45:36;11.70;;;8.00;;
11777;SDS011;5946;51.770;8.548;2024-02-21T10:48:11;13.40;;;7.43;;
11777;SDS011;5946;51.770;8.548;2024-02-21T10:50:42;12.03;;;6.53;;
11777;SDS011;5946;51.770;8.548;2024-02-21T10:53:15;11.27;;;6.13;;
11777;SDS011;5946;51.770;8.548;2024-02-21T10:55:46;9.57;;;6.03;;
11777;SDS011;5946;51.770;8.548;2024-02-21T10:58:14;14.00;;;6.00;;
11777;SDS011;5946;51.770;8.548;2024-02-21T11:00:40;10.03;;;5.10;;
11777;SDS011;5946;51.770;8.548;2024-02-21T11:03:07;8.47;;;4.90;;
11777;SDS011;5946;51.770;8.548;2024-02-21T11:05:33;9.80;;;5.60;;
11777;SDS011;5946;51.770;8.548;2024-02-21T11:07:59;11.37;;;5.10;;
11777;SDS011;5946;51.770;8.548;2024-02-21T11:10:26;13.10;;;5.13;;
11777;SDS011;5946;51.770;8.548;2024-02-21T11:12:53;10.27;;;4.63;;
11777;SDS011;5946;51.770;8.548;2024-02-21T11:15:24;9.27;;;5.10;;
11777;SDS011;5946;51.770;8.548;2024-02-21T11:17:54;9.13;;;4.70;;
11777;SDS011;5946;51.770;8.548;2024-02-21T11:20:20;7.37;;;3.97;;
11777;SDS011;5946;51.770;8.548;2024-02-21T11:22:46;8.23;;;4.13;;
11777;SDS011;5946;51.770;8.548;2024-02-21T11:25:13;6.37;;;3.63;;
11777;SDS011;5946;51.770;8.548;2024-02-21T11:27:46;9.83;;;3.97;;
11777;SDS011;5946;51.770;8.548;2024-02-21T11:30:12;8.73;;;3.70;;
11777;SDS011;5946;51.770;8.548;2024-02-21T11:32:42;9.87;;;3.70;;
11777;SDS011;5946;51.770;8.548;2024-02-21T11:35:08;9.57;;;3.73;;
11777;SDS011;5946;51.770;8.548;2024-02-21T11:37:44;11.97;;;3.97;;
11777;SDS011;5946;51.770;8.548;2024-02-21T11:40:11;8.97;;;4.40;;
11777;SDS011;5946;51.770;8.548;2024-02-21T11:42:38;6.17;;;3.83;;
11777;SDS011;5946;51.770;8.548;2024-02-21T11:45:04;7.97;;;4.00;;
11777;SDS011;5946;51.770;8.548;2024-02-21T11:47:30;6.33;;;3.33;;
11777;SDS011;5946;51.770;8.548;2024-02-21T11:49:56;7.60;;;4.07;;
11777;SDS011;5946;51.770;8.548;2024-02-21T11:52:22;8.63;;;4.20;;
11777;SDS011;5946;51.770;8.548;2024-02-21T11:54:52;11.17;;;4.30;;
11777;SDS011;5946;51.770;8.548;2024-02-21T11:57:19;7.90;;;4.20;;
11777;SDS011;5946;51.770;8.548;2024-02-21T11:59:45;6.17;;;3.90;;
11777;SDS011;5946;51.770;8.548;2024-02-21T12:02:12;10.20;;;4.20;;
11777;SDS011;5946;51.770;8.548;2024-02-21T12:04:38;8.63;;;4.13;;
11777;SDS011;5946;51.770;8.548;2024-02-21T12:07:04;6.17;;;3.83;;
11777;SDS011;5946;51.770;8.548;2024-02-21T12:09:30;9.93;;;4.33;;
11777;SDS011;5946;51.770;8.548;2024-02-21T12:11:57;8.47;;;4.57;;
11777;SDS011;5946;51.770;8.548;2024-02-21T12:14:24;10.20;;;4.57;;
11777;SDS011;5946;51.770;8.548;2024-02-21T12:16:52;8.10;;;4.53;;
11777;SDS011;5946;51.770;8.548;2024-02-21T12:19:18;9.60;;;4.43;;
11777;SDS011;5946;51.770;8.548;2024-02-21T12:21:45;7.10;;;4.43;;
11777;SDS011;5946;51.770;8.548;2024-02-21T12:24:14;9.87;;;4.73;;
11777;SDS011;5946;51.770;8.548;2024-02-21T12:26:41;9.80;;;4.93;;
11777;SDS011;5946;51.770;8.548;2024-02-21T12:29:07;7.73;;;4.60;;
11777;SDS011;5946;51.770;8.548;2024-02-21T12:31:34;8.97;;;4.43;;
11777;SDS011;5946;51.770;8.548;2024-02-21T12:34:00;9.33;;;4.90;;
11777;SDS011;5946;51.770;8.548;2024-02-21T12:36:26;9.70;;;4.53;;
11777;SDS011;5946;51.770;8.548;2024-02-21T12:38:52;8.63;;;4.80;;
11777;SDS011;5946;51.770;8.548;2024-02-21T12:41:19;12.43;;;5.07;;
11777;SDS011;5946;51.770;8.548;2024-02-21T12:43:45;9.13;;;4.27;;
11777;SDS011;5946;51.770;8.548;2024-02-21T12:46:12;10.67;;;5.13;;
11777;SDS011;5946;51.770;8.548;2024-02-21T12:48:38;16.37;;;5.63;;
11777;SDS011;5946;51.770;8.548;2024-02-21T12:51:04;9.60;;;4.60;;
11777;SDS011;5946;51.770;8.548;2024-02-21T12:53:30;12.90;;;5.30;;
11777;SDS011;5946;51.770;8.548;2024-02-21T12:55:56;13.37;;;6.07;;
11777;SDS011;5946;51.770;8.548;2024-02-21T12:58:22;10.47;;;4.03;;
11777;SDS011;5946;51.770;8.548;2024-02-21T13:00:49;12.07;;;5.10;;
11777;SDS011;5946;51.770;8.548;2024-02-21T13:03:15;11.13;;;5.43;;
11777;SDS011;5946;51.770;8.548;2024-02-21T13:05:41;11.53;;;5.10;;
11777;SDS011;5946;51.770;8.548;2024-02-21T13:08:07;12.00;;;5.33;;
11777;SDS011;5946;51.770;8.548;2024-02-21T13:10:33;19.00;;;6.10;;
11777;SDS011;5946;51.770;8.548;2024-02-21T13:13:02;9.40;;;4.63;;
11777;SDS011;5946;51.770;8.548;2024-02-21T13:15:28;13.63;;;5.20;;
11777;SDS011;5946;51.770;8.548;2024-02-21T13:17:55;15.50;;;5.60;;
11777;SDS011;5946;51.770;8.548;2024-02-21T13:20:21;15.03;;;5.57;;
11777;SDS011;5946;51.770;8.548;2024-02-21T13:22:47;7.20;;;3.80;;
11777;SDS011;5946;51.770;8.548;2024-02-21T13:25:13;11.97;;;4.63;;
11777;SDS011;5946;51.770;8.548;2024-02-21T13:27:43;9.40;;;4.03;;
11777;SDS011;5946;51.770;8.548;2024-02-21T13:30:09;10.87;;;5.00;;
11777;SDS011;5946;51.770;8.548;2024-02-21T13:32:35;9.47;;;4.20;;
11777;SDS011;5946;51.770;8.548;2024-02-21T13:35:01;9.30;;;4.20;;
11777;SDS011;5946;51.770;8.548;2024-02-21T13:37:28;10.63;;;4.10;;
11777;SDS011;5946;51.770;8.548;2024-02-21T13:39:54;11.93;;;4.20;;
11777;SDS011;5946;51.770;8.548;2024-02-21T13:42:22;11.07;;;4.20;;
11777;SDS011;5946;51.770;8.548;2024-02-21T13:44:52;10.13;;;4.10;;
11777;SDS011;5946;51.770;8.548;2024-02-21T13:47:18;10.67;;;4.53;;
11777;SDS011;5946;51.770;8.548;2024-02-21T13:49:44;12.20;;;3.90;;
11777;SDS011;5946;51.770;8.548;2024-02-21T13:52:10;9.97;;;4.30;;
11777;SDS011;5946;51.770;8.548;2024-02-21T13:54:36;8.97;;;4.03;;
11777;SDS011;5946;51.770;8.548;2024-02-21T13:57:01;9.43;;;4.10;;
11777;SDS011;5946;51.770;8.548;2024-02-21T13:59:30;8.57;;;4.20;;
11777;SDS011;5946;51.770;8.548;2024-02-21T14:01:58;8.27;;;3.83;;
11777;SDS011;5946;51.770;8.548;2024-02-21T14:04:24;8.30;;;4.20;;
11777;SDS011;5946;51.770;8.548;2024-02-21T14:06:50;12.87;;;4.47;;
11777;SDS011;5946;51.770;8.548;2024-02-21T14:09:17;7.20;;;4.23;;
11777;SDS011;5946;51.770;8.548;2024-02-21T14:11:43;9.47;;;3.93;;
11777;SDS011;5946;51.770;8.548;2024-02-21T14:14:10;8.80;;;4.70;;
11777;SDS011;5946;51.770;8.548;2024-02-21T14:16:36;15.23;;;4.90;;
11777;SDS011;5946;51.770;8.548;2024-02-21T14:19:02;10.43;;;4.33;;
11777;SDS011;5946;51.770;8.548;2024-02-21T14:21:28;6.90;;;3.53;;
11777;SDS011;5946;51.770;8.548;2024-02-21T14:23:54;10.63;;;3.80;;
11777;SDS011;5946;51.770;8.548;2024-02-21T14:26:21;9.33;;;3.83;;
11777;SDS011;5946;51.770;8.548;2024-02-21T14:28:47;9.00;;;3.47;;
11777;SDS011;5946;51.770;8.548;2024-02-21T14:31:13;7.47;;;3.53;;
11777;SDS011;5946;51.770;8.548;2024-02-21T14:33:39;7.13;;;3.00;;
11777;SDS011;5946;51.770;8.548;2024-02-21T14:36:05;7.20;;;3.30;;
11777;SDS011;5946;51.770;8.548;2024-02-21T14:38:32;8.27;;;3.43;;
11777;SDS011;5946;51.770;8.548;2024-02-21T14:41:00;8.67;;;3.57;;